Terminal Aerodrome Forecast
Issued by NWS

Current Version | Previous Version | Text Only | Print | Product List | Glossary On
Versions: 1 2 3 4 5 6 7 8 9 10 11 12 13 14 15 16 17 18 19 20 21
427
FTUS41 KGYX 271907 AAA
TAFRKD
TAF AMD
KRKD 271907Z 2719/2818 09012G19KT 6SM -RA BR OVC015
     FM272200 10011KT 2SM -RA BR OVC004
     FM280200 04005KT 4SM -SHRA BR OVC010
      AMD LTD TO CLD VIS AND WIND=

USA.gov is the U.S. government's official web portal to all federal, state and local government web resources and services.